sensor_id;sensor_type;location;lat;lon;timestamp;P1;durP1;ratioP1;P2;durP2;ratioP2
38023;SDS011;23834;48.080;11.682;2023-02-24T00:00:42;6.23;;;5.63;;
38023;SDS011;23834;48.080;11.682;2023-02-24T00:03:15;6.10;;;5.60;;
38023;SDS011;23834;48.080;11.682;2023-02-24T00:05:40;6.07;;;5.57;;
38023;SDS011;23834;48.080;11.682;2023-02-24T00:08:13;6.17;;;5.40;;
38023;SDS011;23834;48.080;11.682;2023-02-24T00:10:39;6.77;;;6.17;;
38023;SDS011;23834;48.080;11.682;2023-02-24T00:13:04;5.73;;;5.23;;
38023;SDS011;23834;48.080;11.682;2023-02-24T00:15:29;6.17;;;5.57;;
38023;SDS011;23834;48.080;11.682;2023-02-24T00:17:54;6.50;;;5.67;;
38023;SDS011;23834;48.080;11.682;2023-02-24T00:20:19;6.07;;;5.23;;
38023;SDS011;23834;48.080;11.682;2023-02-24T00:22:45;5.90;;;5.40;;
38023;SDS011;23834;48.080;11.682;2023-02-24T00:25:10;4.97;;;4.57;;
38023;SDS011;23834;48.080;11.682;2023-02-24T00:27:36;5.80;;;5.17;;
38023;SDS011;23834;48.080;11.682;2023-02-24T00:30:01;5.73;;;5.20;;
38023;SDS011;23834;48.080;11.682;2023-02-24T00:32:30;5.70;;;5.10;;
38023;SDS011;23834;48.080;11.682;2023-02-24T00:34:55;5.50;;;5.00;;
38023;SDS011;23834;48.080;11.682;2023-02-24T00:37:21;6.40;;;5.80;;
38023;SDS011;23834;48.080;11.682;2023-02-24T00:39:48;5.37;;;4.97;;
38023;SDS011;23834;48.080;11.682;2023-02-24T00:42:13;5.60;;;5.10;;
38023;SDS011;23834;48.080;11.682;2023-02-24T00:44:39;4.80;;;4.40;;
38023;SDS011;23834;48.080;11.682;2023-02-24T00:47:06;4.90;;;4.50;;
38023;SDS011;23834;48.080;11.682;2023-02-24T00:49:32;5.90;;;5.40;;
38023;SDS011;23834;48.080;11.682;2023-02-24T00:51:57;5.27;;;4.70;;
38023;SDS011;23834;48.080;11.682;2023-02-24T00:54:23;5.83;;;5.30;;
38023;SDS011;23834;48.080;11.682;2023-02-24T00:56:51;4.70;;;4.30;;
38023;SDS011;23834;48.080;11.682;2023-02-24T00:59:17;5.77;;;4.97;;
38023;SDS011;23834;48.080;11.682;2023-02-24T01:01:43;4.90;;;4.40;;
38023;SDS011;23834;48.080;11.682;2023-02-24T01:04:09;5.90;;;5.40;;
38023;SDS011;23834;48.080;11.682;2023-02-24T01:06:41;5.60;;;4.70;;
38023;SDS011;23834;48.080;11.682;2023-02-24T01:09:08;5.50;;;5.03;;
38023;SDS011;23834;48.080;11.682;2023-02-24T01:11:36;5.30;;;4.80;;
38023;SDS011;23834;48.080;11.682;2023-02-24T01:14:21;5.03;;;4.50;;
38023;SDS011;23834;48.080;11.682;2023-02-24T01:16:47;6.33;;;4.93;;
38023;SDS011;23834;48.080;11.682;2023-02-24T01:19:14;5.00;;;4.60;;
38023;SDS011;23834;48.080;11.682;2023-02-24T01:21:39;6.17;;;5.37;;
38023;SDS011;23834;48.080;11.682;2023-02-24T01:24:05;5.77;;;4.90;;
38023;SDS011;23834;48.080;11.682;2023-02-24T01:26:30;5.33;;;4.80;;
38023;SDS011;23834;48.080;11.682;2023-02-24T01:28:55;5.37;;;4.80;;
38023;SDS011;23834;48.080;11.682;2023-02-24T01:31:21;4.33;;;3.93;;
38023;SDS011;23834;48.080;11.682;2023-02-24T01:33:47;5.13;;;4.70;;
38023;SDS011;23834;48.080;11.682;2023-02-24T01:36:15;5.40;;;4.53;;
38023;SDS011;23834;48.080;11.682;2023-02-24T01:38:41;6.50;;;4.80;;
38023;SDS011;23834;48.080;11.682;2023-02-24T01:41:07;4.67;;;4.27;;
38023;SDS011;23834;48.080;11.682;2023-02-24T01:43:32;4.67;;;4.27;;
38023;SDS011;23834;48.080;11.682;2023-02-24T01:45:58;5.07;;;4.57;;
38023;SDS011;23834;48.080;11.682;2023-02-24T01:48:23;5.30;;;4.80;;
38023;SDS011;23834;48.080;11.682;2023-02-24T01:50:49;4.80;;;4.27;;
38023;SDS011;23834;48.080;11.682;2023-02-24T01:53:15;4.80;;;4.33;;
38023;SDS011;23834;48.080;11.682;2023-02-24T01:55:47;5.00;;;4.50;;
38023;SDS011;23834;48.080;11.682;2023-02-24T01:58:23;5.70;;;4.43;;
38023;SDS011;23834;48.080;11.682;2023-02-24T02:00:50;6.00;;;4.17;;
38023;SDS011;23834;48.080;11.682;2023-02-24T02:03:35;5.10;;;4.60;;
38023;SDS011;23834;48.080;11.682;2023-02-24T02:06:03;5.47;;;4.10;;
38023;SDS011;23834;48.080;11.682;2023-02-24T02:08:29;4.13;;;3.67;;
38023;SDS011;23834;48.080;11.682;2023-02-24T02:10:55;5.40;;;4.10;;
38023;SDS011;23834;48.080;11.682;2023-02-24T02:13:22;5.13;;;4.13;;
38023;SDS011;23834;48.080;11.682;2023-02-24T02:15:51;5.10;;;4.60;;
38023;SDS011;23834;48.080;11.682;2023-02-24T02:21:26;4.33;;;3.90;;
38023;SDS011;23834;48.080;11.682;2023-02-24T02:39:34;4.65;;;4.25;;
38023;SDS011;23834;48.080;11.682;2023-02-24T02:42:24;5.03;;;4.03;;
38023;SDS011;23834;48.080;11.682;2023-02-24T02:45:12;4.30;;;3.83;;
38023;SDS011;23834;48.080;11.682;2023-02-24T02:47:46;4.67;;;4.23;;
38023;SDS011;23834;48.080;11.682;2023-02-24T02:52:44;4.90;;;4.40;;
38023;SDS011;23834;48.080;11.682;2023-02-24T02:55:13;4.40;;;3.70;;
38023;SDS011;23834;48.080;11.682;2023-02-24T02:57:41;6.67;;;4.07;;
38023;SDS011;23834;48.080;11.682;2023-02-24T03:00:12;4.50;;;4.10;;
38023;SDS011;23834;48.080;11.682;2023-02-24T03:02:45;5.40;;;4.03;;
38023;SDS011;23834;48.080;11.682;2023-02-24T03:05:13;5.90;;;4.30;;
38023;SDS011;23834;48.080;11.682;2023-02-24T03:07:42;5.63;;;4.30;;
38023;SDS011;23834;48.080;11.682;2023-02-24T03:10:10;5.77;;;4.50;;
38023;SDS011;23834;48.080;11.682;2023-02-24T03:12:45;4.60;;;4.20;;
38023;SDS011;23834;48.080;11.682;2023-02-24T03:15:11;4.70;;;4.30;;
38023;SDS011;23834;48.080;11.682;2023-02-24T03:17:39;5.90;;;4.20;;
38023;SDS011;23834;48.080;11.682;2023-02-24T03:20:27;4.10;;;3.40;;
38023;SDS011;23834;48.080;11.682;2023-02-24T03:23:00;5.97;;;4.40;;
38023;SDS011;23834;48.080;11.682;2023-02-24T03:25:27;4.37;;;3.40;;
38023;SDS011;23834;48.080;11.682;2023-02-24T03:27:58;3.80;;;3.40;;
38023;SDS011;23834;48.080;11.682;2023-02-24T03:30:28;4.40;;;3.70;;
38023;SDS011;23834;48.080;11.682;2023-02-24T03:35:40;3.60;;;3.30;;
38023;SDS011;23834;48.080;11.682;2023-02-24T03:38:06;4.10;;;3.77;;
38023;SDS011;23834;48.080;11.682;2023-02-24T03:40:34;5.97;;;4.20;;
38023;SDS011;23834;48.080;11.682;2023-02-24T03:43:05;4.77;;;3.73;;
38023;SDS011;23834;48.080;11.682;2023-02-24T03:45:35;6.80;;;4.17;;
38023;SDS011;23834;48.080;11.682;2023-02-24T03:48:02;3.93;;;3.17;;
38023;SDS011;23834;48.080;11.682;2023-02-24T03:50:28;4.73;;;3.87;;
38023;SDS011;23834;48.080;11.682;2023-02-24T04:05:44;4.63;;;3.70;;
38023;SDS011;23834;48.080;11.682;2023-02-24T04:08:11;4.63;;;3.90;;
38023;SDS011;23834;48.080;11.682;2023-02-24T04:10:44;5.57;;;3.60;;
38023;SDS011;23834;48.080;11.682;2023-02-24T04:13:36;6.33;;;4.10;;
38023;SDS011;23834;48.080;11.682;2023-02-24T04:16:13;4.60;;;3.93;;
38023;SDS011;23834;48.080;11.682;2023-02-24T04:18:41;5.07;;;4.00;;
38023;SDS011;23834;48.080;11.682;2023-02-24T04:21:08;3.70;;;3.23;;
38023;SDS011;23834;48.080;11.682;2023-02-24T04:23:37;4.87;;;4.00;;
38023;SDS011;23834;48.080;11.682;2023-02-24T04:26:04;4.00;;;3.40;;
38023;SDS011;23834;48.080;11.682;2023-02-24T04:28:30;3.17;;;2.90;;
38023;SDS011;23834;48.080;11.682;2023-02-24T04:30:57;5.20;;;4.00;;
38023;SDS011;23834;48.080;11.682;2023-02-24T04:33:23;3.97;;;3.00;;
38023;SDS011;23834;48.080;11.682;2023-02-24T04:35:48;4.20;;;3.60;;
38023;SDS011;23834;48.080;11.682;2023-02-24T04:38:17;4.43;;;3.20;;
38023;SDS011;23834;48.080;11.682;2023-02-24T04:40:43;4.07;;;3.60;;
38023;SDS011;23834;48.080;11.682;2023-02-24T04:43:08;4.30;;;3.90;;
38023;SDS011;23834;48.080;11.682;2023-02-24T04:45:33;4.27;;;3.30;;
38023;SDS011;23834;48.080;11.682;2023-02-24T04:47:59;3.97;;;3.57;;
38023;SDS011;23834;48.080;11.682;2023-02-24T04:50:25;4.27;;;3.87;;
38023;SDS011;23834;48.080;11.682;2023-02-24T04:52:52;4.43;;;3.90;;
38023;SDS011;23834;48.080;11.682;2023-02-24T04:55:18;3.47;;;3.17;;
38023;SDS011;23834;48.080;11.682;2023-02-24T04:57:46;4.27;;;3.83;;
38023;SDS011;23834;48.080;11.682;2023-02-24T05:00:12;4.80;;;3.93;;
38023;SDS011;23834;48.080;11.682;2023-02-24T05:02:57;3.60;;;3.30;;
38023;SDS011;23834;48.080;11.682;2023-02-24T05:05:24;4.00;;;3.47;;
38023;SDS011;23834;48.080;11.682;2023-02-24T05:07:52;3.90;;;3.40;;
38023;SDS011;23834;48.080;11.682;2023-02-24T05:10:18;5.70;;;3.70;;
38023;SDS011;23834;48.080;11.682;2023-02-24T05:12:43;4.23;;;3.60;;
38023;SDS011;23834;48.080;11.682;2023-02-24T05:15:09;3.80;;;3.30;;
38023;SDS011;23834;48.080;11.682;2023-02-24T05:17:34;3.83;;;3.43;;
38023;SDS011;23834;48.080;11.682;2023-02-24T05:20:00;3.60;;;3.30;;
38023;SDS011;23834;48.080;11.682;2023-02-24T05:22:47;4.30;;;3.90;;
38023;SDS011;23834;48.080;11.682;2023-02-24T05:25:15;4.00;;;3.60;;
38023;SDS011;23834;48.080;11.682;2023-02-24T05:27:40;4.60;;;3.50;;
38023;SDS011;23834;48.080;11.682;2023-02-24T05:30:06;5.90;;;3.47;;
38023;SDS011;23834;48.080;11.682;2023-02-24T05:32:34;4.67;;;3.77;;
38023;SDS011;23834;48.080;11.682;2023-02-24T05:34:59;4.27;;;3.43;;
38023;SDS011;23834;48.080;11.682;2023-02-24T05:37:24;3.63;;;3.33;;
38023;SDS011;23834;48.080;11.682;2023-02-24T05:39:53;3.73;;;3.27;;
38023;SDS011;23834;48.080;11.682;2023-02-24T05:42:18;3.93;;;3.27;;
38023;SDS011;23834;48.080;11.682;2023-02-24T05:44:43;3.93;;;3.50;;
38023;SDS011;23834;48.080;11.682;2023-02-24T05:47:09;3.97;;;3.67;;
38023;SDS011;23834;48.080;11.682;2023-02-24T05:49:34;4.47;;;3.80;;
38023;SDS011;23834;48.080;11.682;2023-02-24T05:52:01;4.30;;;3.20;;
38023;SDS011;23834;48.080;11.682;2023-02-24T05:54:32;5.20;;;3.50;;
38023;SDS011;23834;48.080;11.682;2023-02-24T05:56:58;4.43;;;3.57;;
38023;SDS011;23834;48.080;11.682;2023-02-24T05:59:24;3.80;;;3.40;;
38023;SDS011;23834;48.080;11.682;2023-02-24T06:01:54;4.10;;;3.50;;
38023;SDS011;23834;48.080;11.682;2023-02-24T06:04:20;4.23;;;3.40;;
38023;SDS011;23834;48.080;11.682;2023-02-24T06:06:47;3.90;;;3.60;;
38023;SDS011;23834;48.080;11.682;2023-02-24T06:09:19;4.80;;;3.30;;
38023;SDS011;23834;48.080;11.682;2023-02-24T06:11:47;3.60;;;3.23;;
38023;SDS011;23834;48.080;11.682;2023-02-24T06:14:12;4.07;;;3.17;;
38023;SDS011;23834;48.080;11.682;2023-02-24T06:16:38;4.20;;;3.23;;
38023;SDS011;23834;48.080;11.682;2023-02-24T06:19:04;3.73;;;3.23;;
38023;SDS011;23834;48.080;11.682;2023-02-24T06:21:29;3.70;;;3.33;;
38023;SDS011;23834;48.080;11.682;2023-02-24T06:23:55;4.03;;;3.60;;
38023;SDS011;23834;48.080;11.682;2023-02-24T06:26:21;3.03;;;2.73;;
38023;SDS011;23834;48.080;11.682;2023-02-24T06:28:47;3.40;;;3.10;;
38023;SDS011;23834;48.080;11.682;2023-02-24T06:31:12;3.73;;;3.00;;
38023;SDS011;23834;48.080;11.682;2023-02-24T06:33:39;3.90;;;3.50;;
38023;SDS011;23834;48.080;11.682;2023-02-24T06:36:05;3.50;;;3.20;;
38023;SDS011;23834;48.080;11.682;2023-02-24T06:38:30;3.13;;;2.93;;
38023;SDS011;23834;48.080;11.682;2023-02-24T06:40:57;3.30;;;3.00;;
38023;SDS011;23834;48.080;11.682;2023-02-24T06:43:22;3.43;;;3.13;;
38023;SDS011;23834;48.080;11.682;2023-02-24T06:45:47;3.40;;;3.10;;
38023;SDS011;23834;48.080;11.682;2023-02-24T06:48:12;4.40;;;3.90;;
38023;SDS011;23834;48.080;11.682;2023-02-24T06:50:37;4.00;;;3.57;;
38023;SDS011;23834;48.080;11.682;2023-02-24T06:53:04;4.50;;;3.30;;
38023;SDS011;23834;48.080;11.682;2023-02-24T06:55:33;4.13;;;3.77;;
38023;SDS011;23834;48.080;11.682;2023-02-24T06:58:00;3.23;;;2.93;;
38023;SDS011;23834;48.080;11.682;2023-02-24T07:00:32;3.83;;;3.40;;
38023;SDS011;23834;48.080;11.682;2023-02-24T07:03:01;3.47;;;3.17;;
38023;SDS011;23834;48.080;11.682;2023-02-24T07:05:38;4.43;;;3.53;;
38023;SDS011;23834;48.080;11.682;2023-02-24T07:08:03;4.83;;;3.13;;
38023;SDS011;23834;48.080;11.682;2023-02-24T07:10:29;3.90;;;3.50;;
38023;SDS011;23834;48.080;11.682;2023-02-24T07:12:54;4.07;;;3.77;;
38023;SDS011;23834;48.080;11.682;2023-02-24T07:15:20;4.27;;;3.10;;
38023;SDS011;23834;48.080;11.682;2023-02-24T07:17:45;3.90;;;3.60;;
38023;SDS011;23834;48.080;11.682;2023-02-24T07:20:10;3.43;;;3.13;;
38023;SDS011;23834;48.080;11.682;2023-02-24T07:22:49;3.43;;;3.13;;
38023;SDS011;23834;48.080;11.682;2023-02-24T07:25:14;4.40;;;3.10;;
38023;SDS011;23834;48.080;11.682;2023-02-24T07:27:54;3.97;;;3.43;;
38023;SDS011;23834;48.080;11.682;2023-02-24T07:30:20;3.43;;;2.90;;
38023;SDS011;23834;48.080;11.682;2023-02-24T07:32:45;3.80;;;3.23;;
38023;SDS011;23834;48.080;11.682;2023-02-24T07:35:12;3.13;;;2.83;;
38023;SDS011;23834;48.080;11.682;2023-02-24T07:37:38;3.63;;;3.33;;
38023;SDS011;23834;48.080;11.682;2023-02-24T07:40:03;4.63;;;3.63;;
38023;SDS011;23834;48.080;11.682;2023-02-24T07:42:31;3.73;;;3.43;;
38023;SDS011;23834;48.080;11.682;2023-02-24T07:44:59;3.70;;;3.40;;
38023;SDS011;23834;48.080;11.682;2023-02-24T07:47:24;3.87;;;3.57;;
38023;SDS011;23834;48.080;11.682;2023-02-24T07:49:50;3.63;;;3.10;;
38023;SDS011;23834;48.080;11.682;2023-02-24T07:52:15;3.53;;;3.33;;
38023;SDS011;23834;48.080;11.682;2023-02-24T07:54:41;3.60;;;3.13;;
38023;SDS011;23834;48.080;11.682;2023-02-24T07:57:07;3.80;;;3.50;;
38023;SDS011;23834;48.080;11.682;2023-02-24T07:59:37;3.70;;;3.13;;
38023;SDS011;23834;48.080;11.682;2023-02-24T08:02:02;6.60;;;3.30;;
38023;SDS011;23834;48.080;11.682;2023-02-24T08:04:31;3.50;;;3.20;;
38023;SDS011;23834;48.080;11.682;2023-02-24T08:06:57;4.17;;;3.27;;
38023;SDS011;23834;48.080;11.682;2023-02-24T08:09:27;2.83;;;2.63;;
38023;SDS011;23834;48.080;11.682;2023-02-24T08:14:36;3.23;;;3.03;;
38023;SDS011;23834;48.080;11.682;2023-02-24T08:17:08;3.40;;;3.20;;
38023;SDS011;23834;48.080;11.682;2023-02-24T08:19:34;4.07;;;3.17;;
38023;SDS011;23834;48.080;11.682;2023-02-24T08:22:06;3.47;;;3.00;;
38023;SDS011;23834;48.080;11.682;2023-02-24T08:24:53;4.40;;;3.23;;
38023;SDS011;23834;48.080;11.682;2023-02-24T08:27:19;4.20;;;3.30;;
38023;SDS011;23834;48.080;11.682;2023-02-24T08:29:46;3.47;;;3.17;;
38023;SDS011;23834;48.080;11.682;2023-02-24T08:35:07;3.33;;;3.03;;
38023;SDS011;23834;48.080;11.682;2023-02-24T08:37:38;3.60;;;3.30;;
38023;SDS011;23834;48.080;11.682;2023-02-24T08:40:06;3.90;;;2.77;;
38023;SDS011;23834;48.080;11.682;2023-02-24T08:42:32;3.10;;;2.80;;
38023;SDS011;23834;48.080;11.682;2023-02-24T08:44:59;3.47;;;3.10;;
38023;SDS011;23834;48.080;11.682;2023-02-24T08:47:25;3.37;;;3.10;;
38023;SDS011;23834;48.080;11.682;2023-02-24T08:49:55;3.70;;;3.30;;
38023;SDS011;23834;48.080;11.682;2023-02-24T08:52:23;3.03;;;2.83;;
38023;SDS011;23834;48.080;11.682;2023-02-24T08:54:49;3.30;;;3.00;;
38023;SDS011;23834;48.080;11.682;2023-02-24T08:57:14;3.30;;;3.00;;
38023;SDS011;23834;48.080;11.682;2023-02-24T08:59:42;3.70;;;3.30;;
38023;SDS011;23834;48.080;11.682;2023-02-24T09:02:17;3.60;;;2.93;;
38023;SDS011;23834;48.080;11.682;2023-02-24T09:04:46;2.90;;;2.70;;
38023;SDS011;23834;48.080;11.682;2023-02-24T09:07:12;2.77;;;2.57;;
38023;SDS011;23834;48.080;11.682;2023-02-24T09:09:39;2.97;;;2.77;;
38023;SDS011;23834;48.080;11.682;2023-02-24T09:12:06;3.70;;;3.10;;
38023;SDS011;23834;48.080;11.682;2023-02-24T09:14:32;2.90;;;2.70;;
38023;SDS011;23834;48.080;11.682;2023-02-24T09:17:01;3.50;;;3.20;;
38023;SDS011;23834;48.080;11.682;2023-02-24T09:22:10;3.20;;;3.00;;
38023;SDS011;23834;48.080;11.682;2023-02-24T09:24:54;2.83;;;2.63;;
38023;SDS011;23834;48.080;11.682;2023-02-24T09:27:39;2.97;;;2.77;;
38023;SDS011;23834;48.080;11.682;2023-02-24T09:30:07;3.07;;;2.83;;
38023;SDS011;23834;48.080;11.682;2023-02-24T09:32:49;3.30;;;3.00;;
38023;SDS011;23834;48.080;11.682;2023-02-24T09:35:14;3.40;;;3.10;;
38023;SDS011;23834;48.080;11.682;2023-02-24T09:37:49;3.23;;;2.93;;
38023;SDS011;23834;48.080;11.682;2023-02-24T09:40:15;3.20;;;2.90;;
38023;SDS011;23834;48.080;11.682;2023-02-24T09:42:40;3.70;;;3.30;;
38023;SDS011;23834;48.080;11.682;2023-02-24T09:45:22;3.30;;;2.73;;
38023;SDS011;23834;48.080;11.682;2023-02-24T09:48:01;4.70;;;2.80;;
38023;SDS011;23834;48.080;11.682;2023-02-24T09:50:34;3.30;;;2.63;;
38023;SDS011;23834;48.080;11.682;2023-02-24T09:53:10;3.10;;;2.90;;
38023;SDS011;23834;48.080;11.682;2023-02-24T10:04:13;3.63;;;2.97;;
38023;SDS011;23834;48.080;11.682;2023-02-24T10:06:56;3.00;;;2.80;;
38023;SDS011;23834;48.080;11.682;2023-02-24T10:09:27;2.73;;;2.53;;
38023;SDS011;23834;48.080;11.682;2023-02-24T10:12:00;2.90;;;2.53;;
38023;SDS011;23834;48.080;11.682;2023-02-24T10:14:36;4.47;;;2.60;;
38023;SDS011;23834;48.080;11.682;2023-02-24T10:17:14;3.30;;;2.60;;
38023;SDS011;23834;48.080;11.682;2023-02-24T10:19:56;2.73;;;2.50;;
38023;SDS011;23834;48.080;11.682;2023-02-24T10:22:40;2.93;;;2.47;;
38023;SDS011;23834;48.080;11.682;2023-02-24T10:27:48;2.87;;;2.57;;
38023;SDS011;23834;48.080;11.682;2023-02-24T10:32:55;2.97;;;2.77;;
38023;SDS011;23834;48.080;11.682;2023-02-24T10:35:23;2.70;;;2.50;;
38023;SDS011;23834;48.080;11.682;2023-02-24T10:37:50;2.93;;;2.70;;
38023;SDS011;23834;48.080;11.682;2023-02-24T10:40:15;3.47;;;2.97;;
38023;SDS011;23834;48.080;11.682;2023-02-24T10:43:05;3.43;;;2.87;;
38023;SDS011;23834;48.080;11.682;2023-02-24T10:45:36;3.07;;;2.87;;
38023;SDS011;23834;48.080;11.682;2023-02-24T10:48:08;2.80;;;2.53;;
38023;SDS011;23834;48.080;11.682;2023-02-24T10:50:38;3.50;;;2.63;;
38023;SDS011;23834;48.080;11.682;2023-02-24T10:53:11;3.10;;;2.80;;
38023;SDS011;23834;48.080;11.682;2023-02-24T10:55:50;2.80;;;2.60;;
38023;SDS011;23834;48.080;11.682;2023-02-24T10:58:32;2.87;;;2.53;;
38023;SDS011;23834;48.080;11.682;2023-02-24T11:01:28;2.63;;;2.43;;
38023;SDS011;23834;48.080;11.682;2023-02-24T11:04:18;3.23;;;2.63;;
38023;SDS011;23834;48.080;11.682;2023-02-24T11:07:03;2.70;;;2.50;;
38023;SDS011;23834;48.080;11.682;2023-02-24T11:09:36;3.20;;;2.37;;
38023;SDS011;23834;48.080;11.682;2023-02-24T11:14:54;2.80;;;2.60;;
38023;SDS011;23834;48.080;11.682;2023-02-24T11:17:48;3.00;;;2.53;;
38023;SDS011;23834;48.080;11.682;2023-02-24T11:20:20;2.83;;;2.53;;
38023;SDS011;23834;48.080;11.682;2023-02-24T11:22:47;2.33;;;2.13;;
38023;SDS011;23834;48.080;11.682;2023-02-24T11:27:41;2.00;;;1.90;;
38023;SDS011;23834;48.080;11.682;2023-02-24T11:30:12;3.03;;;2.73;;
38023;SDS011;23834;48.080;11.682;2023-02-24T11:35:08;2.60;;;2.40;;
38023;SDS011;23834;48.080;11.682;2023-02-24T11:37:40;2.53;;;2.33;;
38023;SDS011;23834;48.080;11.682;2023-02-24T11:40:17;2.50;;;2.30;;
38023;SDS011;23834;48.080;11.682;2023-02-24T11:42:46;2.80;;;2.20;;
38023;SDS011;23834;48.080;11.682;2023-02-24T11:45:46;2.70;;;2.50;;
38023;SDS011;23834;48.080;11.682;2023-02-24T11:52:55;3.57;;;2.40;;
38023;SDS011;23834;48.080;11.682;2023-02-24T11:55:26;3.10;;;2.40;;
38023;SDS011;23834;48.080;11.682;2023-02-24T11:57:53;2.20;;;2.00;;
38023;SDS011;23834;48.080;11.682;2023-02-24T12:00:21;3.50;;;2.30;;
38023;SDS011;23834;48.080;11.682;2023-02-24T12:05:22;2.70;;;2.50;;
38023;SDS011;23834;48.080;11.682;2023-02-24T12:07:53;2.13;;;2.03;;
38023;SDS011;23834;48.080;11.682;2023-02-24T12:10:21;2.43;;;2.23;;
38023;SDS011;23834;48.080;11.682;2023-02-24T12:15:32;2.50;;;2.20;;
38023;SDS011;23834;48.080;11.682;2023-02-24T12:20:37;2.47;;;2.27;;
38023;SDS011;23834;48.080;11.682;2023-02-24T12:28:21;2.60;;;2.40;;
38023;SDS011;23834;48.080;11.682;2023-02-24T12:35:46;2.67;;;2.47;;
38023;SDS011;23834;48.080;11.682;2023-02-24T12:43:38;2.30;;;2.10;;
38023;SDS011;23834;48.080;11.682;2023-02-24T12:46:12;2.47;;;2.27;;
38023;SDS011;23834;48.080;11.682;2023-02-24T12:58:58;2.10;;;2.00;;
38023;SDS011;23834;48.080;11.682;2023-02-24T13:01:28;2.73;;;2.27;;
38023;SDS011;23834;48.080;11.682;2023-02-24T13:11:55;2.70;;;2.50;;
38023;SDS011;23834;48.080;11.682;2023-02-24T13:14:33;2.30;;;2.10;;
38023;SDS011;23834;48.080;11.682;2023-02-24T13:17:03;2.80;;;2.53;;
38023;SDS011;23834;48.080;11.682;2023-02-24T13:19:29;2.60;;;2.40;;
38023;SDS011;23834;48.080;11.682;2023-02-24T13:21:55;2.20;;;2.03;;
38023;SDS011;23834;48.080;11.682;2023-02-24T13:24:22;2.30;;;2.10;;
38023;SDS011;23834;48.080;11.682;2023-02-24T13:26:48;2.63;;;2.43;;
38023;SDS011;23834;48.080;11.682;2023-02-24T13:29:13;2.63;;;2.40;;
38023;SDS011;23834;48.080;11.682;2023-02-24T13:34:30;2.73;;;2.30;;
38023;SDS011;23834;48.080;11.682;2023-02-24T13:36:55;3.50;;;2.50;;
38023;SDS011;23834;48.080;11.682;2023-02-24T13:39:31;2.63;;;2.43;;
38023;SDS011;23834;48.080;11.682;2023-02-24T13:42:01;2.57;;;2.37;;
38023;SDS011;23834;48.080;11.682;2023-02-24T13:44:28;5.60;;;2.40;;
38023;SDS011;23834;48.080;11.682;2023-02-24T13:49:38;2.23;;;2.13;;
38023;SDS011;23834;48.080;11.682;2023-02-24T14:00:35;2.20;;;2.00;;
38023;SDS011;23834;48.080;11.682;2023-02-24T14:03:25;3.20;;;2.50;;
38023;SDS011;23834;48.080;11.682;2023-02-24T14:05:49;2.33;;;2.13;;
38023;SDS011;23834;48.080;11.682;2023-02-24T14:08:23;2.47;;;2.23;;
38023;SDS011;23834;48.080;11.682;2023-02-24T14:10:54;2.40;;;2.20;;
38023;SDS011;23834;48.080;11.682;2023-02-24T14:13:23;2.90;;;2.53;;
38023;SDS011;23834;48.080;11.682;2023-02-24T14:15:52;1.90;;;1.80;;
38023;SDS011;23834;48.080;11.682;2023-02-24T14:18:28;2.40;;;2.20;;
38023;SDS011;23834;48.080;11.682;2023-02-24T14:20:54;2.60;;;2.40;;
38023;SDS011;23834;48.080;11.682;2023-02-24T14:23:24;2.50;;;2.10;;
38023;SDS011;23834;48.080;11.682;2023-02-24T14:26:06;2.53;;;2.33;;
38023;SDS011;23834;48.080;11.682;2023-02-24T14:28:36;3.20;;;2.23;;
38023;SDS011;23834;48.080;11.682;2023-02-24T14:31:04;3.67;;;2.77;;
38023;SDS011;23834;48.080;11.682;2023-02-24T14:33:31;2.40;;;2.13;;
38023;SDS011;23834;48.080;11.682;2023-02-24T14:35:57;3.17;;;2.33;;
38023;SDS011;23834;48.080;11.682;2023-02-24T14:38:36;2.60;;;2.40;;
38023;SDS011;23834;48.080;11.682;2023-02-24T14:41:03;2.20;;;2.00;;
38023;SDS011;23834;48.080;11.682;2023-02-24T14:43:29;3.27;;;2.43;;
38023;SDS011;23834;48.080;11.682;2023-02-24T14:45:54;2.60;;;2.07;;
38023;SDS011;23834;48.080;11.682;2023-02-24T14:50:50;2.50;;;2.30;;
38023;SDS011;23834;48.080;11.682;2023-02-24T14:53:15;2.40;;;2.20;;
38023;SDS011;23834;48.080;11.682;2023-02-24T14:55:44;2.23;;;2.03;;
38023;SDS011;23834;48.080;11.682;2023-02-24T15:00:46;2.87;;;2.07;;
38023;SDS011;23834;48.080;11.682;2023-02-24T15:03:24;2.70;;;2.50;;
38023;SDS011;23834;48.080;11.682;2023-02-24T15:05:51;4.60;;;2.50;;
38023;SDS011;23834;48.080;11.682;2023-02-24T15:10:46;2.97;;;2.37;;
38023;SDS011;23834;48.080;11.682;2023-02-24T15:13:14;2.47;;;2.27;;
38023;SDS011;23834;48.080;11.682;2023-02-24T15:15:40;3.67;;;2.53;;
38023;SDS011;23834;48.080;11.682;2023-02-24T15:21:02;2.20;;;2.00;;
38023;SDS011;23834;48.080;11.682;2023-02-24T15:23:30;5.83;;;2.70;;
38023;SDS011;23834;48.080;11.682;2023-02-24T15:25:56;2.70;;;2.50;;
38023;SDS011;23834;48.080;11.682;2023-02-24T15:30:55;2.40;;;2.20;;
38023;SDS011;23834;48.080;11.682;2023-02-24T15:33:22;2.43;;;2.00;;
38023;SDS011;23834;48.080;11.682;2023-02-24T15:35:52;2.20;;;2.10;;
38023;SDS011;23834;48.080;11.682;2023-02-24T15:38:21;2.67;;;2.47;;
38023;SDS011;23834;48.080;11.682;2023-02-24T15:40:55;2.87;;;2.60;;
38023;SDS011;23834;48.080;11.682;2023-02-24T15:45:58;2.60;;;2.33;;
38023;SDS011;23834;48.080;11.682;2023-02-24T15:48:24;2.90;;;2.67;;
38023;SDS011;23834;48.080;11.682;2023-02-24T15:50:53;2.40;;;2.27;;
38023;SDS011;23834;48.080;11.682;2023-02-24T15:53:19;2.77;;;2.57;;
38023;SDS011;23834;48.080;11.682;2023-02-24T15:55:44;2.53;;;2.33;;
38023;SDS011;23834;48.080;11.682;2023-02-24T15:58:11;2.60;;;2.40;;
38023;SDS011;23834;48.080;11.682;2023-02-24T16:00:37;2.03;;;1.93;;
38023;SDS011;23834;48.080;11.682;2023-02-24T16:03:02;2.80;;;2.50;;
38023;SDS011;23834;48.080;11.682;2023-02-24T16:05:27;2.53;;;2.33;;
38023;SDS011;23834;48.080;11.682;2023-02-24T16:07:53;3.50;;;2.47;;
38023;SDS011;23834;48.080;11.682;2023-02-24T16:10:22;4.83;;;2.30;;
38023;SDS011;23834;48.080;11.682;2023-02-24T16:12:53;3.43;;;2.80;;
38023;SDS011;23834;48.080;11.682;2023-02-24T16:15:20;2.83;;;2.63;;
38023;SDS011;23834;48.080;11.682;2023-02-24T16:17:46;3.33;;;2.30;;
38023;SDS011;23834;48.080;11.682;2023-02-24T16:20:13;3.03;;;2.60;;
38023;SDS011;23834;48.080;11.682;2023-02-24T16:22:39;2.47;;;2.20;;
38023;SDS011;23834;48.080;11.682;2023-02-24T16:25:04;2.20;;;2.00;;
38023;SDS011;23834;48.080;11.682;2023-02-24T16:27:29;2.20;;;2.10;;
38023;SDS011;23834;48.080;11.682;2023-02-24T16:29:55;2.50;;;2.30;;
38023;SDS011;23834;48.080;11.682;2023-02-24T16:32:21;2.27;;;2.17;;
38023;SDS011;23834;48.080;11.682;2023-02-24T16:34:47;2.50;;;2.33;;
38023;SDS011;23834;48.080;11.682;2023-02-24T16:37:20;2.43;;;2.23;;
38023;SDS011;23834;48.080;11.682;2023-02-24T16:39:45;2.77;;;2.23;;
38023;SDS011;23834;48.080;11.682;2023-02-24T16:42:11;3.60;;;2.60;;
38023;SDS011;23834;48.080;11.682;2023-02-24T16:44:36;2.07;;;1.97;;
38023;SDS011;23834;48.080;11.682;2023-02-24T16:47:02;3.00;;;2.33;;
38023;SDS011;23834;48.080;11.682;2023-02-24T16:49:27;2.93;;;2.63;;
38023;SDS011;23834;48.080;11.682;2023-02-24T16:51:52;2.80;;;2.60;;
38023;SDS011;23834;48.080;11.682;2023-02-24T16:54:18;3.77;;;2.20;;
38023;SDS011;23834;48.080;11.682;2023-02-24T16:56:46;2.73;;;2.30;;
38023;SDS011;23834;48.080;11.682;2023-02-24T16:59:11;6.83;;;2.43;;
38023;SDS011;23834;48.080;11.682;2023-02-24T17:01:36;3.60;;;2.50;;
38023;SDS011;23834;48.080;11.682;2023-02-24T17:04:01;5.07;;;2.80;;
38023;SDS011;23834;48.080;11.682;2023-02-24T17:06:29;2.73;;;2.37;;